sensor_id;sensor_type;location;lat;lon;timestamp;P1;durP1;ratioP1;P2;durP2;ratioP2
69334;SDS011;56477;52.742;15.242;2023-05-23T00:00:54;5.60;;;3.70;;
69334;SDS011;56477;52.742;15.242;2023-05-23T00:03:23;8.88;;;4.50;;
69334;SDS011;56477;52.742;15.242;2023-05-23T00:05:50;7.13;;;3.72;;
69334;SDS011;56477;52.742;15.242;2023-05-23T00:08:18;5.82;;;3.13;;
69334;SDS011;56477;52.742;15.242;2023-05-23T00:10:44;5.60;;;3.53;;
69334;SDS011;56477;52.742;15.242;2023-05-23T00:13:12;6.20;;;4.37;;
69334;SDS011;56477;52.742;15.242;2023-05-23T00:15:39;9.45;;;3.53;;
69334;SDS011;56477;52.742;15.242;2023-05-23T00:18:06;7.00;;;3.83;;
69334;SDS011;56477;52.742;15.242;2023-05-23T00:20:35;6.18;;;3.38;;
69334;SDS011;56477;52.742;15.242;2023-05-23T00:23:05;6.22;;;3.50;;
69334;SDS011;56477;52.742;15.242;2023-05-23T00:25:33;10.60;;;3.83;;
69334;SDS011;56477;52.742;15.242;2023-05-23T00:27:59;7.45;;;3.42;;
69334;SDS011;56477;52.742;15.242;2023-05-23T00:30:25;5.97;;;3.63;;
69334;SDS011;56477;52.742;15.242;2023-05-23T00:32:52;7.78;;;3.67;;
69334;SDS011;56477;52.742;15.242;2023-05-23T00:35:19;6.68;;;3.58;;
69334;SDS011;56477;52.742;15.242;2023-05-23T00:37:48;6.27;;;3.97;;
69334;SDS011;56477;52.742;15.242;2023-05-23T00:40:19;8.90;;;3.60;;
69334;SDS011;56477;52.742;15.242;2023-05-23T00:42:46;7.93;;;4.18;;
69334;SDS011;56477;52.742;15.242;2023-05-23T00:45:13;7.63;;;4.03;;
69334;SDS011;56477;52.742;15.242;2023-05-23T00:47:39;6.40;;;3.70;;
69334;SDS011;56477;52.742;15.242;2023-05-23T00:50:15;8.83;;;4.70;;
69334;SDS011;56477;52.742;15.242;2023-05-23T00:52:43;10.35;;;4.05;;
69334;SDS011;56477;52.742;15.242;2023-05-23T00:55:11;6.30;;;4.13;;
69334;SDS011;56477;52.742;15.242;2023-05-23T00:57:37;7.28;;;3.92;;
69334;SDS011;56477;52.742;15.242;2023-05-23T01:00:09;6.60;;;3.83;;
69334;SDS011;56477;52.742;15.242;2023-05-23T01:02:40;6.20;;;4.33;;
69334;SDS011;56477;52.742;15.242;2023-05-23T01:05:12;6.65;;;3.85;;
69334;SDS011;56477;52.742;15.242;2023-05-23T01:07:42;8.43;;;3.97;;
69334;SDS011;56477;52.742;15.242;2023-05-23T01:10:09;8.40;;;3.80;;
69334;SDS011;56477;52.742;15.242;2023-05-23T01:12:49;7.60;;;4.18;;
69334;SDS011;56477;52.742;15.242;2023-05-23T01:15:39;6.03;;;4.10;;
69334;SDS011;56477;52.742;15.242;2023-05-23T01:18:15;6.90;;;3.90;;
69334;SDS011;56477;52.742;15.242;2023-05-23T01:20:55;7.10;;;3.97;;
69334;SDS011;56477;52.742;15.242;2023-05-23T01:29:25;7.33;;;4.00;;
69334;SDS011;56477;52.742;15.242;2023-05-23T01:31:57;7.25;;;4.10;;
69334;SDS011;56477;52.742;15.242;2023-05-23T01:34:24;6.70;;;3.90;;
69334;SDS011;56477;52.742;15.242;2023-05-23T01:36:53;5.72;;;3.85;;
69334;SDS011;56477;52.742;15.242;2023-05-23T01:39:22;7.93;;;4.50;;
69334;SDS011;56477;52.742;15.242;2023-05-23T01:41:49;8.48;;;4.50;;
69334;SDS011;56477;52.742;15.242;2023-05-23T01:44:17;9.50;;;4.43;;
69334;SDS011;56477;52.742;15.242;2023-05-23T01:46:44;9.40;;;4.70;;
69334;SDS011;56477;52.742;15.242;2023-05-23T01:49:14;7.28;;;4.50;;
69334;SDS011;56477;52.742;15.242;2023-05-23T01:51:41;12.50;;;4.83;;
69334;SDS011;56477;52.742;15.242;2023-05-23T01:54:07;7.47;;;4.32;;
69334;SDS011;56477;52.742;15.242;2023-05-23T01:56:33;7.93;;;4.22;;
69334;SDS011;56477;52.742;15.242;2023-05-23T01:59:02;8.27;;;4.45;;
69334;SDS011;56477;52.742;15.242;2023-05-23T02:01:28;7.35;;;4.32;;
69334;SDS011;56477;52.742;15.242;2023-05-23T02:03:57;8.07;;;4.37;;
69334;SDS011;56477;52.742;15.242;2023-05-23T02:06:25;8.13;;;4.80;;
69334;SDS011;56477;52.742;15.242;2023-05-23T02:08:51;6.93;;;4.70;;
69334;SDS011;56477;52.742;15.242;2023-05-23T02:11:17;5.97;;;4.10;;
69334;SDS011;56477;52.742;15.242;2023-05-23T02:13:44;6.83;;;4.50;;
69334;SDS011;56477;52.742;15.242;2023-05-23T02:16:10;7.95;;;4.30;;
69334;SDS011;56477;52.742;15.242;2023-05-23T02:18:36;9.63;;;4.85;;
69334;SDS011;56477;52.742;15.242;2023-05-23T02:21:03;6.88;;;4.30;;
69334;SDS011;56477;52.742;15.242;2023-05-23T02:23:30;7.60;;;4.47;;
69334;SDS011;56477;52.742;15.242;2023-05-23T02:25:56;8.23;;;4.70;;
69334;SDS011;56477;52.742;15.242;2023-05-23T02:28:22;7.35;;;4.28;;
69334;SDS011;56477;52.742;15.242;2023-05-23T02:30:48;9.07;;;4.40;;
69334;SDS011;56477;52.742;15.242;2023-05-23T02:33:14;8.30;;;5.00;;
69334;SDS011;56477;52.742;15.242;2023-05-23T02:35:41;9.65;;;4.80;;
69334;SDS011;56477;52.742;15.242;2023-05-23T02:38:07;9.68;;;5.20;;
69334;SDS011;56477;52.742;15.242;2023-05-23T02:40:32;8.98;;;5.10;;
69334;SDS011;56477;52.742;15.242;2023-05-23T02:43:01;11.70;;;5.13;;
69334;SDS011;56477;52.742;15.242;2023-05-23T02:45:27;13.85;;;5.80;;
69334;SDS011;56477;52.742;15.242;2023-05-23T02:47:53;13.60;;;5.22;;
69334;SDS011;56477;52.742;15.242;2023-05-23T02:50:19;12.55;;;5.20;;
69334;SDS011;56477;52.742;15.242;2023-05-23T02:52:45;9.60;;;4.97;;
69334;SDS011;56477;52.742;15.242;2023-05-23T02:55:11;10.40;;;5.00;;
69334;SDS011;56477;52.742;15.242;2023-05-23T02:57:37;9.32;;;4.97;;
69334;SDS011;56477;52.742;15.242;2023-05-23T03:00:03;8.43;;;5.10;;
69334;SDS011;56477;52.742;15.242;2023-05-23T03:02:30;12.55;;;5.63;;
69334;SDS011;56477;52.742;15.242;2023-05-23T03:04:56;10.18;;;5.20;;
69334;SDS011;56477;52.742;15.242;2023-05-23T03:07:22;12.18;;;5.32;;
69334;SDS011;56477;52.742;15.242;2023-05-23T03:09:48;12.43;;;5.60;;
69334;SDS011;56477;52.742;15.242;2023-05-23T03:12:14;12.57;;;5.20;;
69334;SDS011;56477;52.742;15.242;2023-05-23T03:14:40;11.13;;;5.65;;
69334;SDS011;56477;52.742;15.242;2023-05-23T03:17:06;10.20;;;5.75;;
69334;SDS011;56477;52.742;15.242;2023-05-23T03:19:32;11.47;;;5.60;;
69334;SDS011;56477;52.742;15.242;2023-05-23T03:21:58;11.07;;;4.93;;
69334;SDS011;56477;52.742;15.242;2023-05-23T03:24:23;13.48;;;6.47;;
69334;SDS011;56477;52.742;15.242;2023-05-23T03:26:50;12.10;;;6.07;;
69334;SDS011;56477;52.742;15.242;2023-05-23T03:29:16;10.23;;;5.20;;
69334;SDS011;56477;52.742;15.242;2023-05-23T03:31:42;10.60;;;5.88;;
69334;SDS011;56477;52.742;15.242;2023-05-23T03:34:08;9.90;;;5.00;;
69334;SDS011;56477;52.742;15.242;2023-05-23T03:36:34;11.50;;;5.40;;
69334;SDS011;56477;52.742;15.242;2023-05-23T03:39:03;9.55;;;5.47;;
69334;SDS011;56477;52.742;15.242;2023-05-23T03:41:29;9.60;;;5.40;;
69334;SDS011;56477;52.742;15.242;2023-05-23T03:43:55;11.45;;;5.72;;
69334;SDS011;56477;52.742;15.242;2023-05-23T03:46:21;10.93;;;5.70;;
69334;SDS011;56477;52.742;15.242;2023-05-23T03:48:47;12.80;;;5.60;;
69334;SDS011;56477;52.742;15.242;2023-05-23T03:51:14;12.45;;;5.63;;
69334;SDS011;56477;52.742;15.242;2023-05-23T03:53:39;11.67;;;6.03;;
69334;SDS011;56477;52.742;15.242;2023-05-23T03:56:06;10.93;;;6.03;;
69334;SDS011;56477;52.742;15.242;2023-05-23T03:58:31;10.18;;;6.10;;
69334;SDS011;56477;52.742;15.242;2023-05-23T04:00:58;9.90;;;5.35;;
69334;SDS011;56477;52.742;15.242;2023-05-23T04:03:25;11.77;;;6.25;;
69334;SDS011;56477;52.742;15.242;2023-05-23T04:05:51;10.93;;;6.00;;
69334;SDS011;56477;52.742;15.242;2023-05-23T04:08:17;10.70;;;6.00;;
69334;SDS011;56477;52.742;15.242;2023-05-23T04:10:46;9.60;;;5.93;;
69334;SDS011;56477;52.742;15.242;2023-05-23T04:13:15;11.10;;;5.80;;
69334;SDS011;56477;52.742;15.242;2023-05-23T04:15:41;11.33;;;6.13;;
69334;SDS011;56477;52.742;15.242;2023-05-23T04:18:08;10.05;;;5.53;;
69334;SDS011;56477;52.742;15.242;2023-05-23T04:20:34;13.20;;;5.70;;
69334;SDS011;56477;52.742;15.242;2023-05-23T04:23:00;9.05;;;5.28;;
69334;SDS011;56477;52.742;15.242;2023-05-23T04:25:26;9.63;;;5.77;;
69334;SDS011;56477;52.742;15.242;2023-05-23T04:27:52;13.23;;;6.47;;
69334;SDS011;56477;52.742;15.242;2023-05-23T04:30:20;10.60;;;5.82;;
69334;SDS011;56477;52.742;15.242;2023-05-23T04:32:46;12.05;;;6.30;;
69334;SDS011;56477;52.742;15.242;2023-05-23T04:35:13;8.10;;;6.10;;
69334;SDS011;56477;52.742;15.242;2023-05-23T04:37:38;13.38;;;5.80;;
69334;SDS011;56477;52.742;15.242;2023-05-23T04:40:05;11.10;;;5.88;;
69334;SDS011;56477;52.742;15.242;2023-05-23T04:42:32;9.75;;;5.93;;
69334;SDS011;56477;52.742;15.242;2023-05-23T04:44:58;10.07;;;5.63;;
69334;SDS011;56477;52.742;15.242;2023-05-23T04:47:26;11.75;;;6.00;;
69334;SDS011;56477;52.742;15.242;2023-05-23T04:49:55;13.23;;;6.18;;
69334;SDS011;56477;52.742;15.242;2023-05-23T04:52:21;10.50;;;6.55;;
69334;SDS011;56477;52.742;15.242;2023-05-23T04:54:48;8.98;;;5.95;;
69334;SDS011;56477;52.742;15.242;2023-05-23T04:57:13;10.57;;;5.77;;
69334;SDS011;56477;52.742;15.242;2023-05-23T04:59:40;9.00;;;5.88;;
69334;SDS011;56477;52.742;15.242;2023-05-23T05:02:06;11.07;;;5.90;;
69334;SDS011;56477;52.742;15.242;2023-05-23T05:04:34;9.40;;;6.18;;
69334;SDS011;56477;52.742;15.242;2023-05-23T05:07:00;11.05;;;6.15;;
69334;SDS011;56477;52.742;15.242;2023-05-23T05:09:29;12.13;;;5.70;;
69334;SDS011;56477;52.742;15.242;2023-05-23T05:11:56;12.90;;;5.78;;
69334;SDS011;56477;52.742;15.242;2023-05-23T05:14:24;9.55;;;5.63;;
69334;SDS011;56477;52.742;15.242;2023-05-23T05:16:51;12.07;;;5.47;;
69334;SDS011;56477;52.742;15.242;2023-05-23T05:19:19;10.82;;;6.32;;
69334;SDS011;56477;52.742;15.242;2023-05-23T05:21:46;10.53;;;5.83;;
69334;SDS011;56477;52.742;15.242;2023-05-23T05:24:12;11.50;;;5.68;;
69334;SDS011;56477;52.742;15.242;2023-05-23T05:26:38;9.68;;;5.68;;
69334;SDS011;56477;52.742;15.242;2023-05-23T05:29:06;10.38;;;6.20;;
69334;SDS011;56477;52.742;15.242;2023-05-23T05:31:32;12.90;;;6.13;;
69334;SDS011;56477;52.742;15.242;2023-05-23T05:33:58;13.52;;;6.35;;
69334;SDS011;56477;52.742;15.242;2023-05-23T05:36:24;12.52;;;6.10;;
69334;SDS011;56477;52.742;15.242;2023-05-23T05:38:50;9.57;;;5.78;;
69334;SDS011;56477;52.742;15.242;2023-05-23T05:41:17;14.77;;;6.93;;
69334;SDS011;56477;52.742;15.242;2023-05-23T05:43:43;9.85;;;6.13;;
69334;SDS011;56477;52.742;15.242;2023-05-23T05:46:09;10.13;;;5.38;;
69334;SDS011;56477;52.742;15.242;2023-05-23T05:48:36;9.48;;;5.78;;
69334;SDS011;56477;52.742;15.242;2023-05-23T05:51:02;11.37;;;5.70;;
69334;SDS011;56477;52.742;15.242;2023-05-23T05:53:28;11.65;;;6.07;;
69334;SDS011;56477;52.742;15.242;2023-05-23T05:55:54;8.90;;;5.50;;
69334;SDS011;56477;52.742;15.242;2023-05-23T05:58:20;9.60;;;6.07;;
69334;SDS011;56477;52.742;15.242;2023-05-23T06:00:46;8.90;;;5.67;;
69334;SDS011;56477;52.742;15.242;2023-05-23T06:03:13;9.77;;;5.85;;
69334;SDS011;56477;52.742;15.242;2023-05-23T06:05:40;10.63;;;6.00;;
69334;SDS011;56477;52.742;15.242;2023-05-23T06:08:06;10.68;;;5.80;;
69334;SDS011;56477;52.742;15.242;2023-05-23T06:10:32;8.47;;;5.47;;
69334;SDS011;56477;52.742;15.242;2023-05-23T06:12:58;8.90;;;5.97;;
69334;SDS011;56477;52.742;15.242;2023-05-23T06:15:24;11.38;;;5.70;;
69334;SDS011;56477;52.742;15.242;2023-05-23T06:17:53;11.07;;;6.38;;
69334;SDS011;56477;52.742;15.242;2023-05-23T06:20:21;10.95;;;6.50;;
69334;SDS011;56477;52.742;15.242;2023-05-23T06:22:47;9.57;;;6.05;;
69334;SDS011;56477;52.742;15.242;2023-05-23T06:25:13;11.57;;;6.30;;
69334;SDS011;56477;52.742;15.242;2023-05-23T06:27:39;13.35;;;7.40;;
69334;SDS011;56477;52.742;15.242;2023-05-23T06:30:05;14.38;;;7.10;;
69334;SDS011;56477;52.742;15.242;2023-05-23T06:32:32;12.52;;;6.10;;
69334;SDS011;56477;52.742;15.242;2023-05-23T06:34:58;11.30;;;5.73;;
69334;SDS011;56477;52.742;15.242;2023-05-23T06:37:24;12.07;;;5.97;;
69334;SDS011;56477;52.742;15.242;2023-05-23T06:39:50;10.57;;;6.28;;
69334;SDS011;56477;52.742;15.242;2023-05-23T06:42:16;11.20;;;5.67;;
69334;SDS011;56477;52.742;15.242;2023-05-23T06:44:42;10.30;;;5.63;;
69334;SDS011;56477;52.742;15.242;2023-05-23T06:47:08;11.50;;;5.80;;
69334;SDS011;56477;52.742;15.242;2023-05-23T06:49:34;9.87;;;6.17;;
69334;SDS011;56477;52.742;15.242;2023-05-23T06:52:00;11.20;;;5.75;;
69334;SDS011;56477;52.742;15.242;2023-05-23T06:54:26;10.48;;;5.97;;
69334;SDS011;56477;52.742;15.242;2023-05-23T06:56:52;8.50;;;5.47;;
69334;SDS011;56477;52.742;15.242;2023-05-23T06:59:18;8.70;;;5.50;;
69334;SDS011;56477;52.742;15.242;2023-05-23T07:01:44;9.02;;;5.30;;
69334;SDS011;56477;52.742;15.242;2023-05-23T07:04:10;15.40;;;5.68;;
69334;SDS011;56477;52.742;15.242;2023-05-23T07:06:36;10.88;;;6.07;;
69334;SDS011;56477;52.742;15.242;2023-05-23T07:09:04;13.05;;;6.15;;
69334;SDS011;56477;52.742;15.242;2023-05-23T07:11:30;10.37;;;5.70;;
69334;SDS011;56477;52.742;15.242;2023-05-23T07:13:56;9.50;;;5.85;;
69334;SDS011;56477;52.742;15.242;2023-05-23T07:16:22;9.93;;;6.22;;
69334;SDS011;56477;52.742;15.242;2023-05-23T07:18:48;10.25;;;6.35;;
69334;SDS011;56477;52.742;15.242;2023-05-23T07:21:14;10.27;;;6.70;;
69334;SDS011;56477;52.742;15.242;2023-05-23T07:23:40;14.35;;;6.68;;
69334;SDS011;56477;52.742;15.242;2023-05-23T07:26:06;10.63;;;6.35;;
69334;SDS011;56477;52.742;15.242;2023-05-23T07:28:34;12.52;;;6.57;;
69334;SDS011;56477;52.742;15.242;2023-05-23T07:31:00;10.33;;;6.40;;
69334;SDS011;56477;52.742;15.242;2023-05-23T07:33:26;9.75;;;6.57;;
69334;SDS011;56477;52.742;15.242;2023-05-23T07:35:53;11.95;;;6.95;;
69334;SDS011;56477;52.742;15.242;2023-05-23T07:38:18;12.82;;;7.15;;
69334;SDS011;56477;52.742;15.242;2023-05-23T07:40:45;15.03;;;7.40;;
69334;SDS011;56477;52.742;15.242;2023-05-23T07:43:11;13.02;;;8.10;;
69334;SDS011;56477;52.742;15.242;2023-05-23T07:45:37;18.10;;;7.75;;
69334;SDS011;56477;52.742;15.242;2023-05-23T07:48:03;13.83;;;7.60;;
69334;SDS011;56477;52.742;15.242;2023-05-23T07:50:29;12.68;;;7.85;;
69334;SDS011;56477;52.742;15.242;2023-05-23T07:52:55;12.77;;;8.05;;
69334;SDS011;56477;52.742;15.242;2023-05-23T07:55:22;12.50;;;8.15;;
69334;SDS011;56477;52.742;15.242;2023-05-23T07:57:48;14.35;;;8.38;;
69334;SDS011;56477;52.742;15.242;2023-05-23T08:00:14;14.03;;;8.80;;
69334;SDS011;56477;52.742;15.242;2023-05-23T08:02:41;14.68;;;8.35;;
69334;SDS011;56477;52.742;15.242;2023-05-23T08:05:07;14.93;;;9.32;;
69334;SDS011;56477;52.742;15.242;2023-05-23T08:07:33;13.32;;;8.43;;
69334;SDS011;56477;52.742;15.242;2023-05-23T08:10:00;15.10;;;8.73;;
69334;SDS011;56477;52.742;15.242;2023-05-23T08:12:27;14.93;;;8.70;;
69334;SDS011;56477;52.742;15.242;2023-05-23T08:14:53;15.43;;;9.50;;
69334;SDS011;56477;52.742;15.242;2023-05-23T08:17:19;14.27;;;9.55;;
69334;SDS011;56477;52.742;15.242;2023-05-23T08:19:48;15.68;;;9.40;;
69334;SDS011;56477;52.742;15.242;2023-05-23T08:22:14;13.73;;;9.17;;
69334;SDS011;56477;52.742;15.242;2023-05-23T08:24:40;14.93;;;9.27;;
69334;SDS011;56477;52.742;15.242;2023-05-23T08:27:08;19.98;;;9.63;;
69334;SDS011;56477;52.742;15.242;2023-05-23T08:29:34;15.55;;;10.07;;
69334;SDS011;56477;52.742;15.242;2023-05-23T08:32:01;15.70;;;8.87;;
69334;SDS011;56477;52.742;15.242;2023-05-23T08:34:28;15.93;;;9.57;;
69334;SDS011;56477;52.742;15.242;2023-05-23T08:36:54;14.63;;;9.38;;
69334;SDS011;56477;52.742;15.242;2023-05-23T08:39:20;14.70;;;8.85;;
69334;SDS011;56477;52.742;15.242;2023-05-23T08:41:45;14.80;;;8.57;;
69334;SDS011;56477;52.742;15.242;2023-05-23T08:44:15;15.27;;;8.32;;
69334;SDS011;56477;52.742;15.242;2023-05-23T08:46:44;15.05;;;8.45;;
69334;SDS011;56477;52.742;15.242;2023-05-23T08:49:12;15.63;;;8.48;;
69334;SDS011;56477;52.742;15.242;2023-05-23T08:51:42;13.40;;;7.63;;
69334;SDS011;56477;52.742;15.242;2023-05-23T08:54:09;11.32;;;7.80;;
69334;SDS011;56477;52.742;15.242;2023-05-23T08:56:37;11.27;;;7.65;;
69334;SDS011;56477;52.742;15.242;2023-05-23T08:59:04;10.93;;;7.20;;
69334;SDS011;56477;52.742;15.242;2023-05-23T09:01:30;15.40;;;7.60;;
69334;SDS011;56477;52.742;15.242;2023-05-23T09:03:58;13.63;;;7.70;;
69334;SDS011;56477;52.742;15.242;2023-05-23T09:06:29;15.48;;;8.80;;
69334;SDS011;56477;52.742;15.242;2023-05-23T09:08:55;12.82;;;7.82;;
69334;SDS011;56477;52.742;15.242;2023-05-23T09:11:21;11.48;;;8.05;;
69334;SDS011;56477;52.742;15.242;2023-05-23T09:13:48;13.57;;;8.07;;
69334;SDS011;56477;52.742;15.242;2023-05-23T09:16:14;12.17;;;8.30;;
69334;SDS011;56477;52.742;15.242;2023-05-23T09:18:43;14.10;;;8.55;;
69334;SDS011;56477;52.742;15.242;2023-05-23T09:21:09;12.80;;;7.60;;
69334;SDS011;56477;52.742;15.242;2023-05-23T09:23:37;13.57;;;7.82;;
69334;SDS011;56477;52.742;15.242;2023-05-23T09:26:05;14.35;;;8.30;;
69334;SDS011;56477;52.742;15.242;2023-05-23T09:28:32;14.93;;;8.50;;
69334;SDS011;56477;52.742;15.242;2023-05-23T09:31:03;17.67;;;8.65;;
69334;SDS011;56477;52.742;15.242;2023-05-23T09:33:34;13.57;;;8.23;;
69334;SDS011;56477;52.742;15.242;2023-05-23T09:36:03;13.35;;;8.90;;
69334;SDS011;56477;52.742;15.242;2023-05-23T09:38:30;13.90;;;9.05;;
69334;SDS011;56477;52.742;15.242;2023-05-23T09:40:57;17.27;;;9.17;;
69334;SDS011;56477;52.742;15.242;2023-05-23T09:43:24;14.25;;;8.88;;
69334;SDS011;56477;52.742;15.242;2023-05-23T09:45:51;14.50;;;9.63;;
69334;SDS011;56477;52.742;15.242;2023-05-23T09:48:18;14.07;;;8.75;;
69334;SDS011;56477;52.742;15.242;2023-05-23T09:50:44;16.30;;;9.37;;
69334;SDS011;56477;52.742;15.242;2023-05-23T09:53:11;15.88;;;9.40;;
69334;SDS011;56477;52.742;15.242;2023-05-23T09:55:37;12.65;;;8.82;;
69334;SDS011;56477;52.742;15.242;2023-05-23T09:58:05;14.98;;;9.45;;
69334;SDS011;56477;52.742;15.242;2023-05-23T10:00:32;12.73;;;8.67;;
69334;SDS011;56477;52.742;15.242;2023-05-23T10:03:09;14.00;;;8.90;;
69334;SDS011;56477;52.742;15.242;2023-05-23T10:08:15;14.88;;;9.13;;
69334;SDS011;56477;52.742;15.242;2023-05-23T10:11:11;14.88;;;9.05;;
69334;SDS011;56477;52.742;15.242;2023-05-23T10:14:01;14.70;;;9.33;;
69334;SDS011;56477;52.742;15.242;2023-05-23T10:19:22;15.63;;;9.52;;
69334;SDS011;56477;52.742;15.242;2023-05-23T10:21:54;15.20;;;9.82;;
69334;SDS011;56477;52.742;15.242;2023-05-23T10:24:24;15.13;;;9.60;;
69334;SDS011;56477;52.742;15.242;2023-05-23T10:26:54;17.57;;;9.93;;
69334;SDS011;56477;52.742;15.242;2023-05-23T10:29:21;16.17;;;10.15;;
69334;SDS011;56477;52.742;15.242;2023-05-23T10:31:47;18.35;;;10.55;;
69334;SDS011;56477;52.742;15.242;2023-05-23T10:34:18;16.00;;;9.20;;
69334;SDS011;56477;52.742;15.242;2023-05-23T10:37:02;15.38;;;9.65;;
69334;SDS011;56477;52.742;15.242;2023-05-23T10:42:16;17.20;;;11.30;;
69334;SDS011;56477;52.742;15.242;2023-05-23T10:44:47;19.50;;;11.40;;
69334;SDS011;56477;52.742;15.242;2023-05-23T10:47:13;17.77;;;10.93;;
69334;SDS011;56477;52.742;15.242;2023-05-23T10:49:51;16.60;;;10.63;;
69334;SDS011;56477;52.742;15.242;2023-05-23T10:52:18;19.58;;;11.25;;
69334;SDS011;56477;52.742;15.242;2023-05-23T10:54:53;17.20;;;10.38;;
69334;SDS011;56477;52.742;15.242;2023-05-23T10:57:24;19.33;;;11.93;;
69334;SDS011;56477;52.742;15.242;2023-05-23T10:59:54;20.00;;;11.32;;
69334;SDS011;56477;52.742;15.242;2023-05-23T11:02:26;18.33;;;10.60;;
69334;SDS011;56477;52.742;15.242;2023-05-23T11:10:35;17.30;;;11.55;;
69334;SDS011;56477;52.742;15.242;2023-05-23T11:13:21;16.83;;;11.00;;
69334;SDS011;56477;52.742;15.242;2023-05-23T11:15:48;18.03;;;11.00;;
69334;SDS011;56477;52.742;15.242;2023-05-23T11:18:21;17.63;;;10.73;;
69334;SDS011;56477;52.742;15.242;2023-05-23T11:20:52;20.20;;;12.00;;
69334;SDS011;56477;52.742;15.242;2023-05-23T11:23:19;17.73;;;11.02;;
69334;SDS011;56477;52.742;15.242;2023-05-23T11:25:49;17.75;;;10.95;;
69334;SDS011;56477;52.742;15.242;2023-05-23T11:28:16;16.13;;;10.47;;
69334;SDS011;56477;52.742;15.242;2023-05-23T11:30:43;15.05;;;10.50;;
69334;SDS011;56477;52.742;15.242;2023-05-23T11:33:12;17.65;;;10.90;;
69334;SDS011;56477;52.742;15.242;2023-05-23T11:35:40;17.20;;;11.48;;
69334;SDS011;56477;52.742;15.242;2023-05-23T11:38:16;18.98;;;11.18;;
69334;SDS011;56477;52.742;15.242;2023-05-23T11:40:44;16.07;;;11.03;;
69334;SDS011;56477;52.742;15.242;2023-05-23T11:43:12;17.15;;;10.93;;
69334;SDS011;56477;52.742;15.242;2023-05-23T11:45:40;18.73;;;10.93;;
69334;SDS011;56477;52.742;15.242;2023-05-23T11:48:07;15.50;;;10.82;;
69334;SDS011;56477;52.742;15.242;2023-05-23T11:51:09;17.13;;;10.98;;
69334;SDS011;56477;52.742;15.242;2023-05-23T11:53:28;19.77;;;11.27;;
69334;SDS011;56477;52.742;15.242;2023-05-23T11:55:55;19.35;;;11.98;;
69334;SDS011;56477;52.742;15.242;2023-05-23T11:58:27;16.10;;;11.32;;
69334;SDS011;56477;52.742;15.242;2023-05-23T12:01:01;17.92;;;12.27;;
69334;SDS011;56477;52.742;15.242;2023-05-23T12:03:29;17.13;;;10.68;;
69334;SDS011;56477;52.742;15.242;2023-05-23T12:05:59;19.00;;;11.27;;
69334;SDS011;56477;52.742;15.242;2023-05-23T12:08:26;17.55;;;11.43;;
69334;SDS011;56477;52.742;15.242;2023-05-23T12:10:56;20.52;;;12.68;;
69334;SDS011;56477;52.742;15.242;2023-05-23T12:13:27;20.83;;;13.23;;
69334;SDS011;56477;52.742;15.242;2023-05-23T12:16:00;20.50;;;13.35;;
69334;SDS011;56477;52.742;15.242;2023-05-23T12:18:27;23.03;;;13.60;;
69334;SDS011;56477;52.742;15.242;2023-05-23T12:20:59;17.50;;;11.63;;
69334;SDS011;56477;52.742;15.242;2023-05-23T12:23:26;17.40;;;11.27;;
69334;SDS011;56477;52.742;15.242;2023-05-23T12:25:56;16.98;;;10.57;;
69334;SDS011;56477;52.742;15.242;2023-05-23T12:28:38;15.55;;;9.57;;
69334;SDS011;56477;52.742;15.242;2023-05-23T12:31:08;14.33;;;8.47;;
69334;SDS011;56477;52.742;15.242;2023-05-23T12:33:46;13.98;;;8.50;;
69334;SDS011;56477;52.742;15.242;2023-05-23T12:36:13;14.48;;;7.68;;
69334;SDS011;56477;52.742;15.242;2023-05-23T12:38:40;13.88;;;7.97;;
69334;SDS011;56477;52.742;15.242;2023-05-23T12:41:10;13.70;;;8.20;;
69334;SDS011;56477;52.742;15.242;2023-05-23T12:43:49;14.13;;;8.70;;
69334;SDS011;56477;52.742;15.242;2023-05-23T12:46:19;12.32;;;8.30;;
69334;SDS011;56477;52.742;15.242;2023-05-23T12:48:46;13.35;;;8.85;;
69334;SDS011;56477;52.742;15.242;2023-05-23T12:51:12;14.73;;;8.30;;
69334;SDS011;56477;52.742;15.242;2023-05-23T12:53:39;12.90;;;7.38;;
69334;SDS011;56477;52.742;15.242;2023-05-23T12:56:05;11.43;;;7.13;;
69334;SDS011;56477;52.742;15.242;2023-05-23T12:58:31;13.23;;;6.80;;
69334;SDS011;56477;52.742;15.242;2023-05-23T13:00:57;9.93;;;6.45;;
69334;SDS011;56477;52.742;15.242;2023-05-23T13:03:23;15.18;;;7.35;;
69334;SDS011;56477;52.742;15.242;2023-05-23T13:05:50;9.83;;;6.33;;
69334;SDS011;56477;52.742;15.242;2023-05-23T13:08:18;11.25;;;7.05;;
69334;SDS011;56477;52.742;15.242;2023-05-23T13:10:44;12.82;;;7.90;;
69334;SDS011;56477;52.742;15.242;2023-05-23T13:13:10;9.20;;;6.68;;
69334;SDS011;56477;52.742;15.242;2023-05-23T13:15:36;12.90;;;7.17;;
69334;SDS011;56477;52.742;15.242;2023-05-23T13:18:02;12.07;;;6.25;;
69334;SDS011;56477;52.742;15.242;2023-05-23T13:20:29;8.93;;;6.20;;
69334;SDS011;56477;52.742;15.242;2023-05-23T13:22:58;11.82;;;6.03;;
69334;SDS011;56477;52.742;15.242;2023-05-23T13:25:26;12.67;;;6.87;;
69334;SDS011;56477;52.742;15.242;2023-05-23T13:27:52;9.82;;;5.90;;
69334;SDS011;56477;52.742;15.242;2023-05-23T13:30:19;8.35;;;6.07;;
69334;SDS011;56477;52.742;15.242;2023-05-23T13:32:45;8.25;;;5.47;;
69334;SDS011;56477;52.742;15.242;2023-05-23T13:35:11;11.30;;;5.70;;
69334;SDS011;56477;52.742;15.242;2023-05-23T13:37:37;8.43;;;5.77;;
69334;SDS011;56477;52.742;15.242;2023-05-23T13:40:04;12.07;;;5.80;;
69334;SDS011;56477;52.742;15.242;2023-05-23T13:42:30;7.53;;;5.32;;
69334;SDS011;56477;52.742;15.242;2023-05-23T13:44:57;9.85;;;6.20;;
69334;SDS011;56477;52.742;15.242;2023-05-23T13:47:23;7.70;;;5.53;;
69334;SDS011;56477;52.742;15.242;2023-05-23T13:49:49;9.20;;;5.82;;
69334;SDS011;56477;52.742;15.242;2023-05-23T13:52:15;8.43;;;6.03;;
69334;SDS011;56477;52.742;15.242;2023-05-23T13:54:41;9.43;;;5.50;;
69334;SDS011;56477;52.742;15.242;2023-05-23T13:57:07;9.55;;;5.43;;
69334;SDS011;56477;52.742;15.242;2023-05-23T13:59:34;8.13;;;5.50;;
69334;SDS011;56477;52.742;15.242;2023-05-23T14:01:59;7.47;;;5.00;;
69334;SDS011;56477;52.742;15.242;2023-05-23T14:04:25;9.18;;;5.55;;
69334;SDS011;56477;52.742;15.242;2023-05-23T14:06:51;7.50;;;4.95;;
69334;SDS011;56477;52.742;15.242;2023-05-23T14:09:18;6.80;;;4.70;;
69334;SDS011;56477;52.742;15.242;2023-05-23T14:11:44;7.45;;;4.75;;
69334;SDS011;56477;52.742;15.242;2023-05-23T14:14:10;10.25;;;5.15;;
69334;SDS011;56477;52.742;15.242;2023-05-23T14:16:36;9.00;;;5.23;;
69334;SDS011;56477;52.742;15.242;2023-05-23T14:19:02;9.13;;;5.28;;
69334;SDS011;56477;52.742;15.242;2023-05-23T14:21:28;7.40;;;4.80;;
69334;SDS011;56477;52.742;15.242;2023-05-23T14:23:56;8.23;;;5.30;;
69334;SDS011;56477;52.742;15.242;2023-05-23T14:26:21;9.17;;;5.20;;
69334;SDS011;56477;52.742;15.242;2023-05-23T14:28:48;8.00;;;5.43;;
69334;SDS011;56477;52.742;15.242;2023-05-23T14:31:13;10.20;;;5.72;;
69334;SDS011;56477;52.742;15.242;2023-05-23T14:33:40;9.80;;;6.00;;
69334;SDS011;56477;52.742;15.242;2023-05-23T14:36:06;12.53;;;5.83;;
69334;SDS011;56477;52.742;15.242;2023-05-23T14:38:32;9.07;;;5.22;;
69334;SDS011;56477;52.742;15.242;2023-05-23T14:40:58;8.73;;;5.50;;
69334;SDS011;56477;52.742;15.242;2023-05-23T14:43:24;9.27;;;5.72;;
69334;SDS011;56477;52.742;15.242;2023-05-23T14:45:50;7.73;;;5.17;;